sensor_id;sensor_type;location;lat;lon;timestamp;P1;durP1;ratioP1;P2;durP2;ratioP2
62580;SDS011;48640;48.770;9.148;2022-11-03T00:00:52;12.77;;;4.20;;
62580;SDS011;48640;48.770;9.148;2022-11-03T00:03:20;7.15;;;3.97;;
62580;SDS011;48640;48.770;9.148;2022-11-03T00:05:47;16.52;;;4.50;;
62580;SDS011;48640;48.770;9.148;2022-11-03T00:08:33;9.98;;;4.07;;
62580;SDS011;48640;48.770;9.148;2022-11-03T00:11:05;10.00;;;4.20;;
62580;SDS011;48640;48.770;9.148;2022-11-03T00:13:34;9.95;;;4.15;;
62580;SDS011;48640;48.770;9.148;2022-11-03T00:16:02;8.38;;;4.63;;
62580;SDS011;48640;48.770;9.148;2022-11-03T00:18:30;8.13;;;4.43;;
62580;SDS011;48640;48.770;9.148;2022-11-03T00:20:58;10.27;;;4.97;;
62580;SDS011;48640;48.770;9.148;2022-11-03T00:23:27;8.73;;;4.30;;
62580;SDS011;48640;48.770;9.148;2022-11-03T00:26:01;11.32;;;4.90;;
62580;SDS011;48640;48.770;9.148;2022-11-03T00:28:29;9.30;;;3.80;;
62580;SDS011;48640;48.770;9.148;2022-11-03T00:30:57;8.90;;;4.28;;
62580;SDS011;48640;48.770;9.148;2022-11-03T00:33:25;8.27;;;4.25;;
62580;SDS011;48640;48.770;9.148;2022-11-03T00:35:56;11.35;;;4.63;;
62580;SDS011;48640;48.770;9.148;2022-11-03T00:38:23;7.75;;;4.22;;
62580;SDS011;48640;48.770;9.148;2022-11-03T00:40:53;13.55;;;4.72;;
62580;SDS011;48640;48.770;9.148;2022-11-03T00:43:20;10.40;;;4.68;;
62580;SDS011;48640;48.770;9.148;2022-11-03T00:45:48;15.38;;;4.88;;
62580;SDS011;48640;48.770;9.148;2022-11-03T00:48:15;13.80;;;5.80;;
62580;SDS011;48640;48.770;9.148;2022-11-03T00:53:39;10.43;;;5.05;;
62580;SDS011;48640;48.770;9.148;2022-11-03T00:56:08;12.45;;;4.85;;
62580;SDS011;48640;48.770;9.148;2022-11-03T00:58:38;11.27;;;5.07;;
62580;SDS011;48640;48.770;9.148;2022-11-03T01:01:06;10.05;;;4.00;;
62580;SDS011;48640;48.770;9.148;2022-11-03T01:03:36;14.95;;;4.78;;
62580;SDS011;48640;48.770;9.148;2022-11-03T01:06:04;9.30;;;4.72;;
62580;SDS011;48640;48.770;9.148;2022-11-03T01:08:51;11.43;;;4.80;;
62580;SDS011;48640;48.770;9.148;2022-11-03T01:11:19;11.43;;;5.55;;
62580;SDS011;48640;48.770;9.148;2022-11-03T01:14:04;9.73;;;4.68;;
62580;SDS011;48640;48.770;9.148;2022-11-03T01:16:31;10.57;;;5.43;;
62580;SDS011;48640;48.770;9.148;2022-11-03T01:18:58;11.57;;;5.35;;
62580;SDS011;48640;48.770;9.148;2022-11-03T01:21:25;13.60;;;5.30;;
62580;SDS011;48640;48.770;9.148;2022-11-03T01:23:54;9.88;;;4.90;;
62580;SDS011;48640;48.770;9.148;2022-11-03T01:26:20;11.70;;;4.63;;
62580;SDS011;48640;48.770;9.148;2022-11-03T01:28:47;9.45;;;4.22;;
62580;SDS011;48640;48.770;9.148;2022-11-03T01:31:15;12.75;;;4.70;;
62580;SDS011;48640;48.770;9.148;2022-11-03T01:33:43;12.38;;;4.82;;
62580;SDS011;48640;48.770;9.148;2022-11-03T01:36:11;11.68;;;5.22;;
62580;SDS011;48640;48.770;9.148;2022-11-03T01:38:38;10.18;;;5.10;;
62580;SDS011;48640;48.770;9.148;2022-11-03T01:41:07;10.02;;;4.22;;
62580;SDS011;48640;48.770;9.148;2022-11-03T01:43:36;9.40;;;4.22;;
62580;SDS011;48640;48.770;9.148;2022-11-03T01:46:06;9.75;;;4.50;;
62580;SDS011;48640;48.770;9.148;2022-11-03T01:48:41;8.00;;;3.95;;
62580;SDS011;48640;48.770;9.148;2022-11-03T01:51:11;10.35;;;4.25;;
62580;SDS011;48640;48.770;9.148;2022-11-03T01:53:40;11.98;;;4.50;;
62580;SDS011;48640;48.770;9.148;2022-11-03T01:56:10;7.85;;;3.63;;
62580;SDS011;48640;48.770;9.148;2022-11-03T01:58:41;10.40;;;4.47;;
62580;SDS011;48640;48.770;9.148;2022-11-03T02:01:09;7.10;;;3.47;;
62580;SDS011;48640;48.770;9.148;2022-11-03T02:03:38;8.43;;;3.63;;
62580;SDS011;48640;48.770;9.148;2022-11-03T02:06:09;6.38;;;3.20;;
62580;SDS011;48640;48.770;9.148;2022-11-03T02:08:38;10.20;;;3.92;;
62580;SDS011;48640;48.770;9.148;2022-11-03T02:11:12;7.93;;;3.33;;
62580;SDS011;48640;48.770;9.148;2022-11-03T02:13:56;8.07;;;2.97;;
62580;SDS011;48640;48.770;9.148;2022-11-03T02:16:23;12.35;;;2.92;;
62580;SDS011;48640;48.770;9.148;2022-11-03T02:18:52;6.75;;;2.72;;
62580;SDS011;48640;48.770;9.148;2022-11-03T02:21:22;8.77;;;2.67;;
62580;SDS011;48640;48.770;9.148;2022-11-03T02:23:54;7.80;;;3.10;;
62580;SDS011;48640;48.770;9.148;2022-11-03T02:26:27;6.88;;;2.90;;
62580;SDS011;48640;48.770;9.148;2022-11-03T02:28:54;9.52;;;3.10;;
62580;SDS011;48640;48.770;9.148;2022-11-03T02:31:22;6.15;;;2.30;;
62580;SDS011;48640;48.770;9.148;2022-11-03T02:33:56;7.32;;;2.60;;
62580;SDS011;48640;48.770;9.148;2022-11-03T02:36:28;8.90;;;3.42;;
62580;SDS011;48640;48.770;9.148;2022-11-03T02:39:01;8.57;;;2.70;;
62580;SDS011;48640;48.770;9.148;2022-11-03T02:41:33;6.78;;;2.67;;
62580;SDS011;48640;48.770;9.148;2022-11-03T02:44:02;10.10;;;2.70;;
62580;SDS011;48640;48.770;9.148;2022-11-03T02:46:30;8.20;;;2.58;;
62580;SDS011;48640;48.770;9.148;2022-11-03T02:48:59;11.15;;;3.30;;
62580;SDS011;48640;48.770;9.148;2022-11-03T02:51:26;8.13;;;2.95;;
62580;SDS011;48640;48.770;9.148;2022-11-03T02:53:55;8.10;;;3.00;;
62580;SDS011;48640;48.770;9.148;2022-11-03T02:56:29;6.28;;;2.80;;
62580;SDS011;48640;48.770;9.148;2022-11-03T02:59:00;8.45;;;3.42;;
62580;SDS011;48640;48.770;9.148;2022-11-03T03:01:29;9.77;;;3.03;;
62580;SDS011;48640;48.770;9.148;2022-11-03T03:04:02;7.88;;;3.00;;
62580;SDS011;48640;48.770;9.148;2022-11-03T03:09:00;10.05;;;3.40;;
62580;SDS011;48640;48.770;9.148;2022-11-03T03:11:30;14.15;;;3.95;;
62580;SDS011;48640;48.770;9.148;2022-11-03T03:14:05;11.20;;;3.55;;
62580;SDS011;48640;48.770;9.148;2022-11-03T03:16:36;9.00;;;3.20;;
62580;SDS011;48640;48.770;9.148;2022-11-03T03:19:13;11.43;;;3.63;;
62580;SDS011;48640;48.770;9.148;2022-11-03T03:21:46;8.80;;;2.90;;
62580;SDS011;48640;48.770;9.148;2022-11-03T03:24:20;10.27;;;3.20;;
62580;SDS011;48640;48.770;9.148;2022-11-03T03:26:55;8.57;;;3.55;;
62580;SDS011;48640;48.770;9.148;2022-11-03T03:29:27;7.68;;;3.38;;
62580;SDS011;48640;48.770;9.148;2022-11-03T03:31:56;9.98;;;3.60;;
62580;SDS011;48640;48.770;9.148;2022-11-03T03:34:26;10.73;;;3.67;;
62580;SDS011;48640;48.770;9.148;2022-11-03T03:36:55;8.07;;;3.40;;
62580;SDS011;48640;48.770;9.148;2022-11-03T03:39:25;8.63;;;3.38;;
62580;SDS011;48640;48.770;9.148;2022-11-03T03:44:24;13.02;;;5.18;;
62580;SDS011;48640;48.770;9.148;2022-11-03T03:46:54;9.20;;;3.50;;
62580;SDS011;48640;48.770;9.148;2022-11-03T03:49:25;10.00;;;4.03;;
62580;SDS011;48640;48.770;9.148;2022-11-03T03:51:52;9.13;;;3.65;;
62580;SDS011;48640;48.770;9.148;2022-11-03T03:54:19;8.52;;;3.85;;
62580;SDS011;48640;48.770;9.148;2022-11-03T03:56:47;11.27;;;3.42;;
62580;SDS011;48640;48.770;9.148;2022-11-03T03:59:23;9.10;;;4.07;;
62580;SDS011;48640;48.770;9.148;2022-11-03T04:01:49;7.85;;;3.63;;
62580;SDS011;48640;48.770;9.148;2022-11-03T04:04:16;6.93;;;3.35;;
62580;SDS011;48640;48.770;9.148;2022-11-03T04:06:43;8.35;;;3.80;;
62580;SDS011;48640;48.770;9.148;2022-11-03T04:09:09;10.82;;;3.67;;
62580;SDS011;48640;48.770;9.148;2022-11-03T04:11:36;6.45;;;3.60;;
62580;SDS011;48640;48.770;9.148;2022-11-03T04:14:36;8.65;;;3.67;;
62580;SDS011;48640;48.770;9.148;2022-11-03T04:17:20;13.50;;;4.85;;
62580;SDS011;48640;48.770;9.148;2022-11-03T04:20:07;7.15;;;3.25;;
62580;SDS011;48640;48.770;9.148;2022-11-03T04:22:51;9.00;;;4.07;;
62580;SDS011;48640;48.770;9.148;2022-11-03T04:25:18;10.98;;;4.45;;
62580;SDS011;48640;48.770;9.148;2022-11-03T04:27:45;6.65;;;3.70;;
62580;SDS011;48640;48.770;9.148;2022-11-03T04:30:16;9.85;;;4.13;;
62580;SDS011;48640;48.770;9.148;2022-11-03T04:32:45;8.27;;;4.80;;
62580;SDS011;48640;48.770;9.148;2022-11-03T04:35:14;7.78;;;3.83;;
62580;SDS011;48640;48.770;9.148;2022-11-03T04:37:43;7.27;;;3.83;;
62580;SDS011;48640;48.770;9.148;2022-11-03T04:40:12;10.57;;;4.85;;
62580;SDS011;48640;48.770;9.148;2022-11-03T04:42:41;6.90;;;3.70;;
62580;SDS011;48640;48.770;9.148;2022-11-03T04:45:12;9.18;;;3.85;;
62580;SDS011;48640;48.770;9.148;2022-11-03T04:47:46;10.35;;;4.07;;
62580;SDS011;48640;48.770;9.148;2022-11-03T04:50:14;8.88;;;4.00;;
62580;SDS011;48640;48.770;9.148;2022-11-03T04:52:43;9.48;;;3.58;;
62580;SDS011;48640;48.770;9.148;2022-11-03T04:55:11;8.90;;;4.10;;
62580;SDS011;48640;48.770;9.148;2022-11-03T04:57:40;10.15;;;4.88;;
62580;SDS011;48640;48.770;9.148;2022-11-03T05:00:09;10.77;;;4.75;;
62580;SDS011;48640;48.770;9.148;2022-11-03T05:02:41;14.10;;;4.85;;
62580;SDS011;48640;48.770;9.148;2022-11-03T05:05:13;21.27;;;5.45;;
62580;SDS011;48640;48.770;9.148;2022-11-03T05:07:42;12.27;;;4.57;;
62580;SDS011;48640;48.770;9.148;2022-11-03T05:10:09;8.10;;;4.95;;
62580;SDS011;48640;48.770;9.148;2022-11-03T05:12:40;11.68;;;4.85;;
62580;SDS011;48640;48.770;9.148;2022-11-03T05:15:13;7.78;;;4.38;;
62580;SDS011;48640;48.770;9.148;2022-11-03T05:17:54;8.60;;;3.88;;
62580;SDS011;48640;48.770;9.148;2022-11-03T05:20:29;10.30;;;4.85;;
62580;SDS011;48640;48.770;9.148;2022-11-03T05:22:58;7.78;;;3.72;;
62580;SDS011;48640;48.770;9.148;2022-11-03T05:25:36;11.40;;;4.40;;
62580;SDS011;48640;48.770;9.148;2022-11-03T05:28:08;10.27;;;4.68;;
62580;SDS011;48640;48.770;9.148;2022-11-03T05:30:44;7.50;;;4.07;;
62580;SDS011;48640;48.770;9.148;2022-11-03T05:33:21;9.60;;;4.05;;
62580;SDS011;48640;48.770;9.148;2022-11-03T05:35:51;11.23;;;4.43;;
62580;SDS011;48640;48.770;9.148;2022-11-03T05:38:20;10.02;;;4.05;;
62580;SDS011;48640;48.770;9.148;2022-11-03T05:40:48;8.50;;;3.90;;
62580;SDS011;48640;48.770;9.148;2022-11-03T05:43:17;9.77;;;4.43;;
62580;SDS011;48640;48.770;9.148;2022-11-03T05:45:44;9.00;;;4.00;;
62580;SDS011;48640;48.770;9.148;2022-11-03T05:48:13;10.93;;;3.78;;
62580;SDS011;48640;48.770;9.148;2022-11-03T05:50:45;14.32;;;4.05;;
62580;SDS011;48640;48.770;9.148;2022-11-03T05:53:18;10.05;;;3.90;;
62580;SDS011;48640;48.770;9.148;2022-11-03T05:55:51;6.45;;;2.97;;
62580;SDS011;48640;48.770;9.148;2022-11-03T05:58:21;9.48;;;3.67;;
62580;SDS011;48640;48.770;9.148;2022-11-03T06:00:49;9.20;;;3.55;;
62580;SDS011;48640;48.770;9.148;2022-11-03T06:03:18;9.32;;;4.00;;
62580;SDS011;48640;48.770;9.148;2022-11-03T06:05:49;12.57;;;4.55;;
62580;SDS011;48640;48.770;9.148;2022-11-03T06:08:18;9.32;;;3.80;;
62580;SDS011;48640;48.770;9.148;2022-11-03T06:10:48;11.02;;;4.38;;
62580;SDS011;48640;48.770;9.148;2022-11-03T06:13:18;9.02;;;3.95;;
62580;SDS011;48640;48.770;9.148;2022-11-03T06:15:46;9.88;;;3.42;;
62580;SDS011;48640;48.770;9.148;2022-11-03T06:18:15;9.05;;;3.97;;
62580;SDS011;48640;48.770;9.148;2022-11-03T06:20:48;10.25;;;4.82;;
62580;SDS011;48640;48.770;9.148;2022-11-03T06:23:19;10.93;;;4.60;;
62580;SDS011;48640;48.770;9.148;2022-11-03T06:25:46;11.82;;;5.57;;
62580;SDS011;48640;48.770;9.148;2022-11-03T06:28:16;8.93;;;4.07;;
62580;SDS011;48640;48.770;9.148;2022-11-03T06:30:45;6.47;;;3.33;;
62580;SDS011;48640;48.770;9.148;2022-11-03T06:33:15;10.02;;;4.20;;
62580;SDS011;48640;48.770;9.148;2022-11-03T06:35:45;9.52;;;4.50;;
62580;SDS011;48640;48.770;9.148;2022-11-03T06:38:17;10.65;;;4.05;;
62580;SDS011;48640;48.770;9.148;2022-11-03T06:40:46;8.48;;;4.68;;
62580;SDS011;48640;48.770;9.148;2022-11-03T06:43:17;11.98;;;4.00;;
62580;SDS011;48640;48.770;9.148;2022-11-03T06:45:49;13.90;;;4.70;;
62580;SDS011;48640;48.770;9.148;2022-11-03T06:48:28;8.90;;;4.75;;
62580;SDS011;48640;48.770;9.148;2022-11-03T06:50:55;8.98;;;3.83;;
62580;SDS011;48640;48.770;9.148;2022-11-03T06:53:25;6.40;;;3.80;;
62580;SDS011;48640;48.770;9.148;2022-11-03T06:55:54;8.20;;;3.83;;
62580;SDS011;48640;48.770;9.148;2022-11-03T06:58:22;8.52;;;3.75;;
62580;SDS011;48640;48.770;9.148;2022-11-03T07:00:52;10.50;;;4.53;;
62580;SDS011;48640;48.770;9.148;2022-11-03T07:03:23;24.48;;;4.60;;
62580;SDS011;48640;48.770;9.148;2022-11-03T07:05:56;8.73;;;4.13;;
62580;SDS011;48640;48.770;9.148;2022-11-03T07:08:27;9.98;;;5.25;;
62580;SDS011;48640;48.770;9.148;2022-11-03T07:10:58;13.38;;;4.65;;
62580;SDS011;48640;48.770;9.148;2022-11-03T07:13:28;9.25;;;4.72;;
62580;SDS011;48640;48.770;9.148;2022-11-03T07:15:57;10.90;;;4.80;;
62580;SDS011;48640;48.770;9.148;2022-11-03T07:18:24;8.15;;;4.85;;
62580;SDS011;48640;48.770;9.148;2022-11-03T07:20:54;10.27;;;4.38;;
62580;SDS011;48640;48.770;9.148;2022-11-03T07:23:23;9.82;;;4.80;;
62580;SDS011;48640;48.770;9.148;2022-11-03T07:25:55;10.45;;;4.68;;
62580;SDS011;48640;48.770;9.148;2022-11-03T07:28:25;12.30;;;5.30;;
62580;SDS011;48640;48.770;9.148;2022-11-03T07:31:00;7.63;;;4.72;;
62580;SDS011;48640;48.770;9.148;2022-11-03T07:33:35;9.68;;;4.85;;
62580;SDS011;48640;48.770;9.148;2022-11-03T07:36:02;8.85;;;4.78;;
62580;SDS011;48640;48.770;9.148;2022-11-03T07:38:33;9.77;;;4.28;;
62580;SDS011;48640;48.770;9.148;2022-11-03T07:41:00;8.93;;;4.38;;
62580;SDS011;48640;48.770;9.148;2022-11-03T07:43:28;12.43;;;5.40;;
62580;SDS011;48640;48.770;9.148;2022-11-03T07:45:57;9.50;;;4.43;;
62580;SDS011;48640;48.770;9.148;2022-11-03T07:48:26;11.90;;;5.35;;
62580;SDS011;48640;48.770;9.148;2022-11-03T07:50:58;9.68;;;4.45;;
62580;SDS011;48640;48.770;9.148;2022-11-03T07:53:29;7.07;;;3.55;;
62580;SDS011;48640;48.770;9.148;2022-11-03T07:56:12;7.63;;;4.35;;
62580;SDS011;48640;48.770;9.148;2022-11-03T07:58:40;9.02;;;4.20;;
62580;SDS011;48640;48.770;9.148;2022-11-03T08:01:15;8.27;;;3.80;;
62580;SDS011;48640;48.770;9.148;2022-11-03T08:03:47;9.23;;;3.55;;
62580;SDS011;48640;48.770;9.148;2022-11-03T08:06:15;5.95;;;3.47;;
62580;SDS011;48640;48.770;9.148;2022-11-03T08:08:43;9.98;;;4.55;;
62580;SDS011;48640;48.770;9.148;2022-11-03T08:11:10;10.43;;;4.03;;
62580;SDS011;48640;48.770;9.148;2022-11-03T08:13:37;7.63;;;3.72;;
62580;SDS011;48640;48.770;9.148;2022-11-03T08:16:04;8.18;;;3.70;;
62580;SDS011;48640;48.770;9.148;2022-11-03T08:18:31;8.82;;;3.83;;
62580;SDS011;48640;48.770;9.148;2022-11-03T08:20:58;8.18;;;3.45;;
62580;SDS011;48640;48.770;9.148;2022-11-03T08:23:25;10.88;;;4.03;;
62580;SDS011;48640;48.770;9.148;2022-11-03T08:25:53;7.95;;;3.80;;
62580;SDS011;48640;48.770;9.148;2022-11-03T08:28:20;7.63;;;3.72;;
62580;SDS011;48640;48.770;9.148;2022-11-03T08:30:48;11.43;;;3.88;;
62580;SDS011;48640;48.770;9.148;2022-11-03T08:33:14;8.77;;;3.50;;
62580;SDS011;48640;48.770;9.148;2022-11-03T08:35:42;7.07;;;3.17;;
62580;SDS011;48640;48.770;9.148;2022-11-03T08:38:08;9.60;;;2.92;;
62580;SDS011;48640;48.770;9.148;2022-11-03T08:40:35;6.97;;;2.90;;
62580;SDS011;48640;48.770;9.148;2022-11-03T08:43:03;8.18;;;3.28;;
62580;SDS011;48640;48.770;9.148;2022-11-03T08:45:30;6.68;;;3.00;;
62580;SDS011;48640;48.770;9.148;2022-11-03T08:47:57;6.95;;;2.97;;
62580;SDS011;48640;48.770;9.148;2022-11-03T08:50:24;7.75;;;2.80;;
62580;SDS011;48640;48.770;9.148;2022-11-03T08:52:50;10.98;;;3.30;;
62580;SDS011;48640;48.770;9.148;2022-11-03T08:55:17;5.07;;;2.72;;
62580;SDS011;48640;48.770;9.148;2022-11-03T08:57:44;4.75;;;3.10;;
62580;SDS011;48640;48.770;9.148;2022-11-03T09:00:13;6.00;;;3.22;;
62580;SDS011;48640;48.770;9.148;2022-11-03T09:02:41;5.07;;;2.75;;
62580;SDS011;48640;48.770;9.148;2022-11-03T09:05:08;7.40;;;3.33;;
62580;SDS011;48640;48.770;9.148;2022-11-03T09:07:36;6.88;;;3.08;;
62580;SDS011;48640;48.770;9.148;2022-11-03T09:10:04;7.57;;;2.45;;
62580;SDS011;48640;48.770;9.148;2022-11-03T09:12:31;6.25;;;3.03;;
62580;SDS011;48640;48.770;9.148;2022-11-03T09:14:58;5.28;;;2.30;;
62580;SDS011;48640;48.770;9.148;2022-11-03T09:17:26;5.25;;;2.50;;
62580;SDS011;48640;48.770;9.148;2022-11-03T09:19:53;4.72;;;2.30;;
62580;SDS011;48640;48.770;9.148;2022-11-03T09:22:20;6.38;;;2.40;;
62580;SDS011;48640;48.770;9.148;2022-11-03T09:24:47;8.93;;;2.58;;
62580;SDS011;48640;48.770;9.148;2022-11-03T09:27:14;8.73;;;2.47;;
62580;SDS011;48640;48.770;9.148;2022-11-03T09:29:40;9.15;;;3.42;;
62580;SDS011;48640;48.770;9.148;2022-11-03T09:32:07;5.85;;;2.55;;
62580;SDS011;48640;48.770;9.148;2022-11-03T09:34:36;4.50;;;2.50;;
62580;SDS011;48640;48.770;9.148;2022-11-03T09:37:03;8.27;;;2.55;;
62580;SDS011;48640;48.770;9.148;2022-11-03T09:39:29;5.20;;;2.17;;
62580;SDS011;48640;48.770;9.148;2022-11-03T09:41:56;5.05;;;2.35;;
62580;SDS011;48640;48.770;9.148;2022-11-03T09:44:24;5.32;;;2.80;;
62580;SDS011;48640;48.770;9.148;2022-11-03T09:46:51;7.13;;;2.95;;
62580;SDS011;48640;48.770;9.148;2022-11-03T09:49:21;5.78;;;2.53;;
62580;SDS011;48640;48.770;9.148;2022-11-03T09:51:57;8.63;;;2.60;;
62580;SDS011;48640;48.770;9.148;2022-11-03T09:54:25;7.75;;;3.15;;
62580;SDS011;48640;48.770;9.148;2022-11-03T09:56:53;5.75;;;2.47;;
62580;SDS011;48640;48.770;9.148;2022-11-03T09:59:34;7.38;;;2.38;;
62580;SDS011;48640;48.770;9.148;2022-11-03T10:02:02;4.40;;;2.10;;
62580;SDS011;48640;48.770;9.148;2022-11-03T10:04:38;5.60;;;2.97;;
62580;SDS011;48640;48.770;9.148;2022-11-03T10:07:07;6.22;;;2.45;;
62580;SDS011;48640;48.770;9.148;2022-11-03T10:09:35;7.07;;;2.70;;
62580;SDS011;48640;48.770;9.148;2022-11-03T10:12:05;7.53;;;3.00;;
62580;SDS011;48640;48.770;9.148;2022-11-03T10:14:34;8.05;;;2.85;;
62580;SDS011;48640;48.770;9.148;2022-11-03T10:17:12;6.55;;;2.13;;
62580;SDS011;48640;48.770;9.148;2022-11-03T10:22:10;4.25;;;2.15;;
62580;SDS011;48640;48.770;9.148;2022-11-03T10:24:37;5.20;;;2.42;;
62580;SDS011;48640;48.770;9.148;2022-11-03T10:27:05;6.40;;;2.55;;
62580;SDS011;48640;48.770;9.148;2022-11-03T10:29:49;3.35;;;1.83;;
62580;SDS011;48640;48.770;9.148;2022-11-03T10:32:33;6.13;;;1.90;;
62580;SDS011;48640;48.770;9.148;2022-11-03T10:35:02;6.15;;;2.67;;
62580;SDS011;48640;48.770;9.148;2022-11-03T10:38:07;6.03;;;2.53;;
62580;SDS011;48640;48.770;9.148;2022-11-03T10:40:51;5.68;;;1.98;;
62580;SDS011;48640;48.770;9.148;2022-11-03T10:43:18;7.05;;;2.13;;
62580;SDS011;48640;48.770;9.148;2022-11-03T10:45:45;5.43;;;2.30;;
62580;SDS011;48640;48.770;9.148;2022-11-03T10:48:13;5.45;;;1.92;;
62580;SDS011;48640;48.770;9.148;2022-11-03T10:50:40;6.65;;;2.50;;
62580;SDS011;48640;48.770;9.148;2022-11-03T10:53:12;7.25;;;2.72;;
62580;SDS011;48640;48.770;9.148;2022-11-03T10:55:42;6.60;;;2.20;;
62580;SDS011;48640;48.770;9.148;2022-11-03T10:58:09;7.53;;;2.90;;
62580;SDS011;48640;48.770;9.148;2022-11-03T11:00:36;9.57;;;3.35;;
62580;SDS011;48640;48.770;9.148;2022-11-03T11:03:05;6.15;;;2.72;;
62580;SDS011;48640;48.770;9.148;2022-11-03T11:05:32;8.23;;;2.15;;
62580;SDS011;48640;48.770;9.148;2022-11-03T11:07:59;7.70;;;2.53;;
62580;SDS011;48640;48.770;9.148;2022-11-03T11:10:28;5.90;;;2.15;;
62580;SDS011;48640;48.770;9.148;2022-11-03T11:13:03;6.70;;;2.50;;
62580;SDS011;48640;48.770;9.148;2022-11-03T11:15:39;5.75;;;3.30;;
62580;SDS011;48640;48.770;9.148;2022-11-03T11:18:07;8.98;;;2.72;;
62580;SDS011;48640;48.770;9.148;2022-11-03T11:20:35;6.68;;;2.63;;
62580;SDS011;48640;48.770;9.148;2022-11-03T11:32:00;8.02;;;3.10;;
62580;SDS011;48640;48.770;9.148;2022-11-03T11:47:22;9.18;;;3.03;;
62580;SDS011;48640;48.770;9.148;2022-11-03T11:55:40;7.10;;;3.05;;
62580;SDS011;48640;48.770;9.148;2022-11-03T12:00:49;9.85;;;2.78;;
62580;SDS011;48640;48.770;9.148;2022-11-03T12:03:27;6.32;;;2.70;;
62580;SDS011;48640;48.770;9.148;2022-11-03T12:05:58;4.53;;;2.90;;
62580;SDS011;48640;48.770;9.148;2022-11-03T12:08:26;7.47;;;2.70;;
62580;SDS011;48640;48.770;9.148;2022-11-03T12:10:55;5.13;;;2.35;;
62580;SDS011;48640;48.770;9.148;2022-11-03T12:13:34;6.95;;;2.33;;
62580;SDS011;48640;48.770;9.148;2022-11-03T12:16:07;6.65;;;2.65;;
62580;SDS011;48640;48.770;9.148;2022-11-03T12:18:34;7.47;;;2.80;;
62580;SDS011;48640;48.770;9.148;2022-11-03T12:21:02;8.27;;;2.85;;
62580;SDS011;48640;48.770;9.148;2022-11-03T12:23:31;5.40;;;2.28;;
62580;SDS011;48640;48.770;9.148;2022-11-03T12:25:58;10.45;;;2.55;;
62580;SDS011;48640;48.770;9.148;2022-11-03T12:28:32;6.68;;;2.92;;
62580;SDS011;48640;48.770;9.148;2022-11-03T12:31:01;3.60;;;2.15;;
62580;SDS011;48640;48.770;9.148;2022-11-03T12:33:28;4.63;;;2.22;;
62580;SDS011;48640;48.770;9.148;2022-11-03T12:35:55;5.25;;;2.15;;
62580;SDS011;48640;48.770;9.148;2022-11-03T12:38:22;5.80;;;3.08;;
62580;SDS011;48640;48.770;9.148;2022-11-03T12:40:49;7.25;;;2.55;;
62580;SDS011;48640;48.770;9.148;2022-11-03T12:43:17;7.63;;;2.28;;
62580;SDS011;48640;48.770;9.148;2022-11-03T12:45:44;7.32;;;2.55;;
62580;SDS011;48640;48.770;9.148;2022-11-03T12:48:12;6.50;;;2.58;;
62580;SDS011;48640;48.770;9.148;2022-11-03T12:50:39;5.45;;;2.80;;
62580;SDS011;48640;48.770;9.148;2022-11-03T12:53:06;5.85;;;2.67;;
62580;SDS011;48640;48.770;9.148;2022-11-03T12:55:33;5.13;;;2.70;;
62580;SDS011;48640;48.770;9.148;2022-11-03T12:57:59;5.95;;;2.55;;
62580;SDS011;48640;48.770;9.148;2022-11-03T13:00:27;5.85;;;2.47;;
62580;SDS011;48640;48.770;9.148;2022-11-03T13:02:54;6.47;;;2.33;;
62580;SDS011;48640;48.770;9.148;2022-11-03T13:05:22;6.60;;;3.17;;
62580;SDS011;48640;48.770;9.148;2022-11-03T13:07:49;5.18;;;2.67;;
62580;SDS011;48640;48.770;9.148;2022-11-03T13:10:16;7.63;;;3.08;;
62580;SDS011;48640;48.770;9.148;2022-11-03T13:12:43;7.60;;;2.55;;
62580;SDS011;48640;48.770;9.148;2022-11-03T13:15:10;7.47;;;3.05;;
62580;SDS011;48640;48.770;9.148;2022-11-03T13:17:39;7.18;;;2.50;;
62580;SDS011;48640;48.770;9.148;2022-11-03T13:20:07;5.80;;;3.15;;
62580;SDS011;48640;48.770;9.148;2022-11-03T13:22:36;7.10;;;3.20;;
62580;SDS011;48640;48.770;9.148;2022-11-03T13:25:04;11.98;;;3.08;;
62580;SDS011;48640;48.770;9.148;2022-11-03T13:27:31;8.18;;;4.00;;
62580;SDS011;48640;48.770;9.148;2022-11-03T13:29:58;7.53;;;2.95;;
62580;SDS011;48640;48.770;9.148;2022-11-03T13:32:25;7.32;;;3.33;;
62580;SDS011;48640;48.770;9.148;2022-11-03T13:34:51;8.20;;;3.28;;
62580;SDS011;48640;48.770;9.148;2022-11-03T13:37:18;7.25;;;2.92;;
62580;SDS011;48640;48.770;9.148;2022-11-03T13:39:46;5.32;;;2.97;;
62580;SDS011;48640;48.770;9.148;2022-11-03T13:42:13;8.80;;;3.95;;
62580;SDS011;48640;48.770;9.148;2022-11-03T13:44:40;6.38;;;3.25;;
62580;SDS011;48640;48.770;9.148;2022-11-03T13:47:06;5.68;;;3.00;;
62580;SDS011;48640;48.770;9.148;2022-11-03T13:49:33;6.88;;;2.97;;
62580;SDS011;48640;48.770;9.148;2022-11-03T13:52:00;6.80;;;2.67;;
62580;SDS011;48640;48.770;9.148;2022-11-03T13:54:27;8.88;;;3.50;;
62580;SDS011;48640;48.770;9.148;2022-11-03T13:56:55;7.25;;;2.60;;
62580;SDS011;48640;48.770;9.148;2022-11-03T13:59:22;5.60;;;2.75;;
62580;SDS011;48640;48.770;9.148;2022-11-03T14:01:49;9.85;;;3.72;;
62580;SDS011;48640;48.770;9.148;2022-11-03T14:04:16;6.28;;;3.20;;
62580;SDS011;48640;48.770;9.148;2022-11-03T14:06:42;7.90;;;3.33;;
62580;SDS011;48640;48.770;9.148;2022-11-03T14:09:09;8.60;;;3.72;;
62580;SDS011;48640;48.770;9.148;2022-11-03T14:11:36;6.00;;;3.47;;
62580;SDS011;48640;48.770;9.148;2022-11-03T14:14:21;7.13;;;4.15;;
62580;SDS011;48640;48.770;9.148;2022-11-03T14:16:48;5.95;;;3.67;;
62580;SDS011;48640;48.770;9.148;2022-11-03T14:19:15;13.95;;;4.40;;
62580;SDS011;48640;48.770;9.148;2022-11-03T14:21:42;8.93;;;3.95;;
62580;SDS011;48640;48.770;9.148;2022-11-03T14:24:08;10.05;;;4.00;;
62580;SDS011;48640;48.770;9.148;2022-11-03T14:26:35;8.75;;;4.15;;
62580;SDS011;48640;48.770;9.148;2022-11-03T14:29:02;10.57;;;3.70;;
62580;SDS011;48640;48.770;9.148;2022-11-03T14:31:30;7.00;;;3.28;;
62580;SDS011;48640;48.770;9.148;2022-11-03T14:33:57;6.38;;;3.58;;
62580;SDS011;48640;48.770;9.148;2022-11-03T14:36:24;8.85;;;3.45;;
62580;SDS011;48640;48.770;9.148;2022-11-03T14:38:51;8.23;;;3.92;;
62580;SDS011;48640;48.770;9.148;2022-11-03T14:41:18;6.32;;;3.00;;
62580;SDS011;48640;48.770;9.148;2022-11-03T14:44:02;13.52;;;3.90;;
62580;SDS011;48640;48.770;9.148;2022-11-03T14:46:29;7.85;;;3.50;;
62580;SDS011;48640;48.770;9.148;2022-11-03T14:48:57;7.93;;;4.05;;
62580;SDS011;48640;48.770;9.148;2022-11-03T14:51:25;8.25;;;4.38;;
62580;SDS011;48640;48.770;9.148;2022-11-03T14:53:52;9.95;;;3.95;;
62580;SDS011;48640;48.770;9.148;2022-11-03T14:56:19;8.70;;;3.90;;
62580;SDS011;48640;48.770;9.148;2022-11-03T14:58:46;8.18;;;3.95;;
62580;SDS011;48640;48.770;9.148;2022-11-03T15:01:14;8.77;;;4.20;;
62580;SDS011;48640;48.770;9.148;2022-11-03T15:03:42;7.13;;;3.92;;
62580;SDS011;48640;48.770;9.148;2022-11-03T15:06:09;6.97;;;4.20;;
62580;SDS011;48640;48.770;9.148;2022-11-03T15:08:36;5.18;;;3.65;;
62580;SDS011;48640;48.770;9.148;2022-11-03T15:11:03;8.20;;;4.65;;
62580;SDS011;48640;48.770;9.148;2022-11-03T15:13:31;6.72;;;3.75;;
62580;SDS011;48640;48.770;9.148;2022-11-03T15:15:58;6.97;;;3.97;;
62580;SDS011;48640;48.770;9.148;2022-11-03T15:18:25;7.82;;;3.45;;
62580;SDS011;48640;48.770;9.148;2022-11-03T15:20:53;5.75;;;3.92;;
62580;SDS011;48640;48.770;9.148;2022-11-03T15:23:20;9.32;;;3.65;;
62580;SDS011;48640;48.770;9.148;2022-11-03T15:25:47;5.45;;;3.40;;
62580;SDS011;48640;48.770;9.148;2022-11-03T15:28:14;10.50;;;3.53;;
62580;SDS011;48640;48.770;9.148;2022-11-03T15:30:41;6.80;;;3.88;;
62580;SDS011;48640;48.770;9.148;2022-11-03T15:33:07;6.40;;;3.63;;
62580;SDS011;48640;48.770;9.148;2022-11-03T15:35:35;9.18;;;4.30;;
62580;SDS011;48640;48.770;9.148;2022-11-03T15:38:04;7.65;;;4.30;;
62580;SDS011;48640;48.770;9.148;2022-11-03T15:40:30;7.00;;;3.83;;